sensor_id;sensor_type;location;lat;lon;timestamp;pressure;altitude;pressure_sealevel;temperature;humidity
6778;BME280;3426;52.244;10.534;2023-02-04T00:00:59;101758.69;;;8.32;74.21
6778;BME280;3426;52.244;10.534;2023-02-04T00:03:25;101777.56;;;8.82;72.69
6778;BME280;3426;52.244;10.534;2023-02-04T00:05:52;101789.13;;;8.12;76.28
6778;BME280;3426;52.244;10.534;2023-02-04T00:08:18;101791.78;;;8.12;77.28
6778;BME280;3426;52.244;10.534;2023-02-04T00:10:45;101812.88;;;6.98;78.03
6778;BME280;3426;52.244;10.534;2023-02-04T00:13:12;101823.53;;;6.48;82.27
6778;BME280;3426;52.244;10.534;2023-02-04T00:15:39;101830.91;;;6.76;81.41
6778;BME280;3426;52.244;10.534;2023-02-04T00:18:05;101832.09;;;6.59;80.73
6778;BME280;3426;52.244;10.534;2023-02-04T00:20:32;101832.34;;;7.71;77.66
6778;BME280;3426;52.244;10.534;2023-02-04T00:22:59;101835.97;;;7.28;77.72
6778;BME280;3426;52.244;10.534;2023-02-04T00:25:26;101836.44;;;7.46;76.57
6778;BME280;3426;52.244;10.534;2023-02-04T00:27:52;101857.44;;;6.65;75.62
6778;BME280;3426;52.244;10.534;2023-02-04T00:30:19;101858.84;;;6.83;75.08
6778;BME280;3426;52.244;10.534;2023-02-04T00:32:46;101866.25;;;7.07;73.55
6778;BME280;3426;52.244;10.534;2023-02-04T00:35:12;101862.47;;;6.77;74.98
6778;BME280;3426;52.244;10.534;2023-02-04T00:37:39;101867.06;;;7.11;71.74
6778;BME280;3426;52.244;10.534;2023-02-04T00:40:05;101877.88;;;5.98;74.06
6778;BME280;3426;52.244;10.534;2023-02-04T00:42:32;101876.78;;;7.07;71.19
6778;BME280;3426;52.244;10.534;2023-02-04T00:44:58;101887.06;;;7.20;70.61
6778;BME280;3426;52.244;10.534;2023-02-04T00:47:25;101888.47;;;7.36;69.31
6778;BME280;3426;52.244;10.534;2023-02-04T00:49:51;101893.53;;;7.47;71.17
6778;BME280;3426;52.244;10.534;2023-02-04T00:52:18;101904.47;;;6.83;72.84
6778;BME280;3426;52.244;10.534;2023-02-04T00:54:44;101912.84;;;7.47;72.84
6778;BME280;3426;52.244;10.534;2023-02-04T00:57:11;101914.84;;;7.36;71.75
6778;BME280;3426;52.244;10.534;2023-02-04T00:59:37;101911.88;;;7.09;71.39
6778;BME280;3426;52.244;10.534;2023-02-04T01:02:04;101936.00;;;7.31;69.90
6778;BME280;3426;52.244;10.534;2023-02-04T01:04:30;101927.25;;;7.31;68.04
6778;BME280;3426;52.244;10.534;2023-02-04T01:06:57;101936.56;;;7.47;68.81
6778;BME280;3426;52.244;10.534;2023-02-04T01:09:23;101940.63;;;7.63;66.75
6778;BME280;3426;52.244;10.534;2023-02-04T01:11:50;101950.19;;;7.26;67.15
6778;BME280;3426;52.244;10.534;2023-02-04T01:14:16;101952.38;;;7.02;69.91
6778;BME280;3426;52.244;10.534;2023-02-04T01:16:43;101961.69;;;7.22;68.66
6778;BME280;3426;52.244;10.534;2023-02-04T01:19:10;101973.91;;;6.25;70.09
6778;BME280;3426;52.244;10.534;2023-02-04T01:21:37;101979.44;;;6.62;70.02
6778;BME280;3426;52.244;10.534;2023-02-04T01:24:06;101989.16;;;7.08;69.03
6778;BME280;3426;52.244;10.534;2023-02-04T01:26:32;101988.69;;;6.86;68.44
6778;BME280;3426;52.244;10.534;2023-02-04T01:28:59;101996.97;;;6.63;68.04
6778;BME280;3426;52.244;10.534;2023-02-04T01:31:25;102014.41;;;6.12;69.46
6778;BME280;3426;52.244;10.534;2023-02-04T01:33:52;102020.88;;;7.04;67.23
6778;BME280;3426;52.244;10.534;2023-02-04T01:36:18;102018.69;;;6.78;66.71
6778;BME280;3426;52.244;10.534;2023-02-04T01:38:48;102030.50;;;7.05;66.81
6778;BME280;3426;52.244;10.534;2023-02-04T01:41:15;102044.50;;;5.93;69.18
6778;BME280;3426;52.244;10.534;2023-02-04T01:43:42;102044.06;;;6.80;67.67
6778;BME280;3426;52.244;10.534;2023-02-04T01:46:09;102049.13;;;7.43;65.06
6778;BME280;3426;52.244;10.534;2023-02-04T01:48:35;102065.91;;;6.88;66.41
6778;BME280;3426;52.244;10.534;2023-02-04T01:51:05;102074.69;;;6.87;64.95
6778;BME280;3426;52.244;10.534;2023-02-04T01:53:33;102073.41;;;6.59;66.79
6778;BME280;3426;52.244;10.534;2023-02-04T01:56:00;102081.75;;;5.48;69.59
6778;BME280;3426;52.244;10.534;2023-02-04T01:58:29;102088.84;;;6.80;65.91
6778;BME280;3426;52.244;10.534;2023-02-04T02:00:57;102092.69;;;5.93;67.74
6778;BME280;3426;52.244;10.534;2023-02-04T02:03:23;102108.22;;;6.11;66.96
6778;BME280;3426;52.244;10.534;2023-02-04T02:05:52;102104.03;;;6.64;66.26
6778;BME280;3426;52.244;10.534;2023-02-04T02:08:19;102111.59;;;6.24;66.56
6778;BME280;3426;52.244;10.534;2023-02-04T02:10:46;102108.03;;;6.30;67.01
6778;BME280;3426;52.244;10.534;2023-02-04T02:13:16;102113.66;;;6.66;66.12
6778;BME280;3426;52.244;10.534;2023-02-04T02:15:44;102112.16;;;6.48;66.53
6778;BME280;3426;52.244;10.534;2023-02-04T02:18:11;102126.38;;;6.33;66.29
6778;BME280;3426;52.244;10.534;2023-02-04T02:20:38;102130.44;;;6.58;66.56
6778;BME280;3426;52.244;10.534;2023-02-04T02:23:25;102119.44;;;5.50;69.00
6778;BME280;3426;52.244;10.534;2023-02-04T02:25:52;102129.75;;;6.44;67.83
6778;BME280;3426;52.244;10.534;2023-02-04T02:28:20;102126.97;;;5.81;67.38
6778;BME280;3426;52.244;10.534;2023-02-04T02:30:47;102134.38;;;6.24;68.72
6778;BME280;3426;52.244;10.534;2023-02-04T02:33:17;102134.09;;;7.05;64.49
6778;BME280;3426;52.244;10.534;2023-02-04T02:35:45;102142.00;;;5.70;68.12
6778;BME280;3426;52.244;10.534;2023-02-04T02:38:16;102151.97;;;5.34;69.98
6778;BME280;3426;52.244;10.534;2023-02-04T02:40:43;102159.41;;;5.81;67.51
6778;BME280;3426;52.244;10.534;2023-02-04T02:43:22;102167.53;;;5.54;69.74
6778;BME280;3426;52.244;10.534;2023-02-04T02:45:49;102167.34;;;6.54;67.42
6778;BME280;3426;52.244;10.534;2023-02-04T02:48:15;102169.09;;;6.53;66.23
6778;BME280;3426;52.244;10.534;2023-02-04T02:50:43;102168.97;;;5.92;69.71
6778;BME280;3426;52.244;10.534;2023-02-04T02:53:12;102174.19;;;5.95;68.75
6778;BME280;3426;52.244;10.534;2023-02-04T02:55:40;102181.09;;;6.76;65.24
6778;BME280;3426;52.244;10.534;2023-02-04T02:58:18;102176.69;;;6.75;64.33
6778;BME280;3426;52.244;10.534;2023-02-04T03:00:45;102185.72;;;5.80;68.28
6778;BME280;3426;52.244;10.534;2023-02-04T03:03:16;102199.72;;;6.60;66.64
6778;BME280;3426;52.244;10.534;2023-02-04T03:05:48;102196.06;;;6.71;65.23
6778;BME280;3426;52.244;10.534;2023-02-04T03:08:17;102201.78;;;6.34;67.41
6778;BME280;3426;52.244;10.534;2023-02-04T03:10:45;102213.28;;;6.95;64.51
6778;BME280;3426;52.244;10.534;2023-02-04T03:13:14;102218.59;;;6.91;64.75
6778;BME280;3426;52.244;10.534;2023-02-04T03:15:42;102223.84;;;6.91;64.70
6778;BME280;3426;52.244;10.534;2023-02-04T03:18:11;102232.22;;;6.56;64.44
6778;BME280;3426;52.244;10.534;2023-02-04T03:20:39;102231.94;;;6.05;67.13
6778;BME280;3426;52.244;10.534;2023-02-04T03:23:06;102241.66;;;6.76;65.19
6778;BME280;3426;52.244;10.534;2023-02-04T03:25:33;102244.09;;;6.89;64.45
6778;BME280;3426;52.244;10.534;2023-02-04T03:27:59;102247.09;;;6.60;66.15
6778;BME280;3426;52.244;10.534;2023-02-04T03:30:26;102256.72;;;5.75;68.31
6778;BME280;3426;52.244;10.534;2023-02-04T03:32:53;102257.84;;;6.41;67.03
6778;BME280;3426;52.244;10.534;2023-02-04T03:35:19;102270.63;;;6.76;65.02
6778;BME280;3426;52.244;10.534;2023-02-04T03:37:46;102265.00;;;6.31;66.55
6778;BME280;3426;52.244;10.534;2023-02-04T03:40:13;102280.00;;;6.18;66.12
6778;BME280;3426;52.244;10.534;2023-02-04T03:42:39;102281.28;;;6.65;66.19
6778;BME280;3426;52.244;10.534;2023-02-04T03:45:06;102286.69;;;6.51;65.50
6778;BME280;3426;52.244;10.534;2023-02-04T03:47:32;102281.56;;;6.39;66.93
6778;BME280;3426;52.244;10.534;2023-02-04T03:49:59;102300.84;;;6.43;66.46
6778;BME280;3426;52.244;10.534;2023-02-04T03:52:25;102316.03;;;6.11;66.30
6778;BME280;3426;52.244;10.534;2023-02-04T03:54:52;102316.56;;;6.47;66.46
6778;BME280;3426;52.244;10.534;2023-02-04T03:57:18;102329.28;;;6.02;67.58
6778;BME280;3426;52.244;10.534;2023-02-04T03:59:45;102322.84;;;6.35;67.22
6778;BME280;3426;52.244;10.534;2023-02-04T04:02:11;102328.72;;;6.59;65.82
6778;BME280;3426;52.244;10.534;2023-02-04T04:04:38;102330.34;;;6.69;65.32
6778;BME280;3426;52.244;10.534;2023-02-04T04:07:04;102339.84;;;5.95;67.16
6778;BME280;3426;52.244;10.534;2023-02-04T04:09:31;102349.91;;;6.48;65.87
6778;BME280;3426;52.244;10.534;2023-02-04T04:11:57;102347.19;;;6.54;65.43
6778;BME280;3426;52.244;10.534;2023-02-04T04:14:24;102353.41;;;6.46;64.73
6778;BME280;3426;52.244;10.534;2023-02-04T04:16:50;102346.41;;;6.48;65.47
6778;BME280;3426;52.244;10.534;2023-02-04T04:19:17;102359.81;;;6.17;65.10
6778;BME280;3426;52.244;10.534;2023-02-04T04:21:43;102370.19;;;6.34;65.71
6778;BME280;3426;52.244;10.534;2023-02-04T04:24:09;102376.28;;;6.41;65.79
6778;BME280;3426;52.244;10.534;2023-02-04T04:26:36;102389.63;;;6.21;65.66
6778;BME280;3426;52.244;10.534;2023-02-04T04:29:02;102387.00;;;6.18;66.21
6778;BME280;3426;52.244;10.534;2023-02-04T04:31:29;102394.91;;;6.19;66.44
6778;BME280;3426;52.244;10.534;2023-02-04T04:33:55;102401.03;;;6.18;66.33
6778;BME280;3426;52.244;10.534;2023-02-04T04:36:22;102405.59;;;5.96;67.54
6778;BME280;3426;52.244;10.534;2023-02-04T04:38:48;102405.59;;;5.95;67.60
6778;BME280;3426;52.244;10.534;2023-02-04T04:41:15;102409.88;;;6.09;66.60
6778;BME280;3426;52.244;10.534;2023-02-04T04:43:41;102417.75;;;6.09;66.29
6778;BME280;3426;52.244;10.534;2023-02-04T04:46:07;102416.06;;;6.01;66.29
6778;BME280;3426;52.244;10.534;2023-02-04T04:48:34;102426.56;;;6.04;65.31
6778;BME280;3426;52.244;10.534;2023-02-04T04:51:00;102425.75;;;5.97;66.24
6778;BME280;3426;52.244;10.534;2023-02-04T04:53:27;102431.25;;;5.51;66.79
6778;BME280;3426;52.244;10.534;2023-02-04T04:55:53;102437.22;;;5.78;66.59
6778;BME280;3426;52.244;10.534;2023-02-04T04:58:20;102434.63;;;5.75;66.28
6778;BME280;3426;52.244;10.534;2023-02-04T05:00:46;102429.31;;;5.81;66.58
6778;BME280;3426;52.244;10.534;2023-02-04T05:03:13;102438.03;;;5.89;66.32
6778;BME280;3426;52.244;10.534;2023-02-04T05:05:40;102444.25;;;5.76;67.19
6778;BME280;3426;52.244;10.534;2023-02-04T05:08:07;102453.88;;;5.80;67.03
6778;BME280;3426;52.244;10.534;2023-02-04T05:10:39;102454.75;;;5.79;66.39
6778;BME280;3426;52.244;10.534;2023-02-04T05:13:05;102460.91;;;5.72;66.89
6778;BME280;3426;52.244;10.534;2023-02-04T05:15:32;102471.50;;;5.63;67.03
6778;BME280;3426;52.244;10.534;2023-02-04T05:17:59;102457.50;;;5.50;69.01
6778;BME280;3426;52.244;10.534;2023-02-04T05:20:25;102474.28;;;5.17;71.29
6778;BME280;3426;52.244;10.534;2023-02-04T05:22:52;102472.34;;;5.69;69.40
6778;BME280;3426;52.244;10.534;2023-02-04T05:25:18;102482.22;;;4.94;72.66
6778;BME280;3426;52.244;10.534;2023-02-04T05:27:45;102476.75;;;5.63;69.21
6778;BME280;3426;52.244;10.534;2023-02-04T05:30:11;102475.72;;;5.94;68.49
6778;BME280;3426;52.244;10.534;2023-02-04T05:32:38;102462.84;;;5.30;70.73
6778;BME280;3426;52.244;10.534;2023-02-04T05:35:06;102467.13;;;5.58;70.33
6778;BME280;3426;52.244;10.534;2023-02-04T05:37:32;102470.69;;;5.47;70.36
6778;BME280;3426;52.244;10.534;2023-02-04T05:39:59;102469.84;;;5.31;71.12
6778;BME280;3426;52.244;10.534;2023-02-04T05:42:25;102479.53;;;5.17;71.94
6778;BME280;3426;52.244;10.534;2023-02-04T05:44:52;102482.94;;;5.48;70.54
6778;BME280;3426;52.244;10.534;2023-02-04T05:47:18;102493.38;;;5.60;69.35
6778;BME280;3426;52.244;10.534;2023-02-04T05:49:45;102503.00;;;5.69;69.86
6778;BME280;3426;52.244;10.534;2023-02-04T05:52:12;102501.09;;;6.04;68.01
6778;BME280;3426;52.244;10.534;2023-02-04T05:54:38;102509.91;;;5.90;68.79
6778;BME280;3426;52.244;10.534;2023-02-04T05:57:05;102504.75;;;5.70;67.95
6778;BME280;3426;52.244;10.534;2023-02-04T05:59:31;102512.84;;;5.05;71.95
6778;BME280;3426;52.244;10.534;2023-02-04T06:01:57;102537.25;;;5.38;70.38
6778;BME280;3426;52.244;10.534;2023-02-04T06:04:24;102532.56;;;6.18;68.50
6778;BME280;3426;52.244;10.534;2023-02-04T06:06:51;102536.94;;;6.22;66.79
6778;BME280;3426;52.244;10.534;2023-02-04T06:09:17;102538.84;;;5.87;68.77
6778;BME280;3426;52.244;10.534;2023-02-04T06:11:43;102549.19;;;6.31;67.56
6778;BME280;3426;52.244;10.534;2023-02-04T06:14:10;102554.38;;;6.42;66.80
6778;BME280;3426;52.244;10.534;2023-02-04T06:16:36;102550.69;;;6.62;65.67
6778;BME280;3426;52.244;10.534;2023-02-04T06:19:03;102558.53;;;6.72;66.26
6778;BME280;3426;52.244;10.534;2023-02-04T06:21:29;102569.06;;;6.69;65.81
6778;BME280;3426;52.244;10.534;2023-02-04T06:23:56;102572.66;;;6.61;66.13
6778;BME280;3426;52.244;10.534;2023-02-04T06:26:22;102576.09;;;6.71;65.76
6778;BME280;3426;52.244;10.534;2023-02-04T06:28:49;102573.41;;;6.74;65.57
6778;BME280;3426;52.244;10.534;2023-02-04T06:31:15;102574.41;;;6.64;65.87
6778;BME280;3426;52.244;10.534;2023-02-04T06:33:41;102584.38;;;6.04;67.54
6778;BME280;3426;52.244;10.534;2023-02-04T06:36:08;102576.47;;;6.05;68.01
6778;BME280;3426;52.244;10.534;2023-02-04T06:38:35;102587.06;;;5.84;69.98
6778;BME280;3426;52.244;10.534;2023-02-04T06:41:02;102602.84;;;5.96;69.56
6778;BME280;3426;52.244;10.534;2023-02-04T06:43:28;102593.25;;;5.71;69.21
6778;BME280;3426;52.244;10.534;2023-02-04T06:45:55;102587.72;;;6.35;67.94
6778;BME280;3426;52.244;10.534;2023-02-04T06:48:21;102595.91;;;5.58;69.71
6778;BME280;3426;52.244;10.534;2023-02-04T06:50:48;102581.53;;;6.48;67.17
6778;BME280;3426;52.244;10.534;2023-02-04T06:53:14;102590.53;;;6.07;68.34
6778;BME280;3426;52.244;10.534;2023-02-04T06:55:41;102604.72;;;5.45;69.34
6778;BME280;3426;52.244;10.534;2023-02-04T06:58:08;102597.41;;;6.33;67.37
6778;BME280;3426;52.244;10.534;2023-02-04T07:00:34;102611.72;;;5.40;69.36
6778;BME280;3426;52.244;10.534;2023-02-04T07:03:01;102619.56;;;5.65;70.17
6778;BME280;3426;52.244;10.534;2023-02-04T07:05:27;102622.06;;;6.10;67.49
6778;BME280;3426;52.244;10.534;2023-02-04T07:07:54;102616.75;;;6.23;66.92
6778;BME280;3426;52.244;10.534;2023-02-04T07:10:21;102630.13;;;4.94;70.77
6778;BME280;3426;52.244;10.534;2023-02-04T07:12:47;102630.94;;;4.57;73.71
6778;BME280;3426;52.244;10.534;2023-02-04T07:15:14;102634.47;;;4.68;73.83
6778;BME280;3426;52.244;10.534;2023-02-04T07:17:41;102640.47;;;4.30;75.12
6778;BME280;3426;52.244;10.534;2023-02-04T07:20:09;102643.22;;;4.74;73.79
6778;BME280;3426;52.244;10.534;2023-02-04T07:22:35;102641.50;;;5.51;69.91
6778;BME280;3426;52.244;10.534;2023-02-04T07:25:02;102645.00;;;5.27;71.21
6778;BME280;3426;52.244;10.534;2023-02-04T07:27:29;102656.34;;;4.87;73.23
6778;BME280;3426;52.244;10.534;2023-02-04T07:29:55;102658.00;;;4.48;73.92
6778;BME280;3426;52.244;10.534;2023-02-04T07:32:22;102665.94;;;4.62;74.09
6778;BME280;3426;52.244;10.534;2023-02-04T07:34:48;102668.59;;;5.61;70.16
6778;BME280;3426;52.244;10.534;2023-02-04T07:37:14;102665.88;;;6.11;68.22
6778;BME280;3426;52.244;10.534;2023-02-04T07:39:41;102667.69;;;6.08;68.76
6778;BME280;3426;52.244;10.534;2023-02-04T07:42:08;102677.25;;;6.18;69.83
6778;BME280;3426;52.244;10.534;2023-02-04T07:44:34;102681.75;;;5.79;69.30
6778;BME280;3426;52.244;10.534;2023-02-04T07:47:02;102686.13;;;5.67;70.12
6778;BME280;3426;52.244;10.534;2023-02-04T07:49:29;102692.22;;;6.08;69.46
6778;BME280;3426;52.244;10.534;2023-02-04T07:51:55;102694.00;;;4.90;73.59
6778;BME280;3426;52.244;10.534;2023-02-04T07:54:23;102695.59;;;6.40;71.15
6778;BME280;3426;52.244;10.534;2023-02-04T07:56:49;102692.25;;;6.02;68.99
6778;BME280;3426;52.244;10.534;2023-02-04T07:59:15;102704.91;;;7.09;66.58
6778;BME280;3426;52.244;10.534;2023-02-04T08:01:42;102709.78;;;5.76;69.11
6778;BME280;3426;52.244;10.534;2023-02-04T08:04:08;102711.44;;;6.32;67.69
6778;BME280;3426;52.244;10.534;2023-02-04T08:06:35;102716.81;;;7.56;62.51
6778;BME280;3426;52.244;10.534;2023-02-04T08:09:01;102711.69;;;8.29;61.30
6778;BME280;3426;52.244;10.534;2023-02-04T08:11:28;102723.59;;;8.63;59.48
6778;BME280;3426;52.244;10.534;2023-02-04T08:13:54;102713.03;;;9.25;56.43
6778;BME280;3426;52.244;10.534;2023-02-04T08:16:21;102718.63;;;9.59;56.82
6778;BME280;3426;52.244;10.534;2023-02-04T08:18:47;102727.84;;;11.14;52.30
6778;BME280;3426;52.244;10.534;2023-02-04T08:21:14;102732.13;;;11.20;49.86
6778;BME280;3426;52.244;10.534;2023-02-04T08:23:40;102732.38;;;9.27;53.12
6778;BME280;3426;52.244;10.534;2023-02-04T08:26:10;102731.91;;;7.39;60.01
6778;BME280;3426;52.244;10.534;2023-02-04T08:28:37;102728.63;;;10.38;52.33
6778;BME280;3426;52.244;10.534;2023-02-04T08:31:05;102731.34;;;9.36;54.55
6778;BME280;3426;52.244;10.534;2023-02-04T08:33:32;102736.66;;;7.97;56.98
6778;BME280;3426;52.244;10.534;2023-02-04T08:35:58;102739.03;;;8.94;54.45
6778;BME280;3426;52.244;10.534;2023-02-04T08:38:25;102736.06;;;8.52;55.81
6778;BME280;3426;52.244;10.534;2023-02-04T08:40:52;102738.91;;;9.03;53.55
6778;BME280;3426;52.244;10.534;2023-02-04T08:43:18;102744.84;;;8.54;56.11
6778;BME280;3426;52.244;10.534;2023-02-04T08:45:45;102742.69;;;8.11;57.16
6778;BME280;3426;52.244;10.534;2023-02-04T08:48:11;102744.72;;;7.83;58.74
6778;BME280;3426;52.244;10.534;2023-02-04T08:50:37;102752.22;;;8.97;54.14
6778;BME280;3426;52.244;10.534;2023-02-04T08:53:04;102760.00;;;7.37;59.46
6778;BME280;3426;52.244;10.534;2023-02-04T08:55:30;102759.78;;;7.67;58.48
6778;BME280;3426;52.244;10.534;2023-02-04T08:57:57;102749.44;;;9.05;55.72
6778;BME280;3426;52.244;10.534;2023-02-04T09:00:24;102756.16;;;7.81;57.52
6778;BME280;3426;52.244;10.534;2023-02-04T09:02:50;102765.97;;;8.54;54.07
6778;BME280;3426;52.244;10.534;2023-02-04T09:05:17;102769.75;;;9.60;53.58
6778;BME280;3426;52.244;10.534;2023-02-04T09:07:43;102771.53;;;8.27;56.72
6778;BME280;3426;52.244;10.534;2023-02-04T09:10:10;102763.84;;;10.44;50.43
6778;BME280;3426;52.244;10.534;2023-02-04T09:12:37;102762.16;;;12.88;44.33
6778;BME280;3426;52.244;10.534;2023-02-04T09:15:03;102757.84;;;11.54;46.47
6778;BME280;3426;52.244;10.534;2023-02-04T09:17:30;102753.19;;;11.99;46.03
6778;BME280;3426;52.244;10.534;2023-02-04T09:19:57;102760.25;;;11.27;46.21
6778;BME280;3426;52.244;10.534;2023-02-04T09:22:23;102772.63;;;9.97;49.40
6778;BME280;3426;52.244;10.534;2023-02-04T09:24:50;102767.16;;;13.29;43.55
6778;BME280;3426;52.244;10.534;2023-02-04T09:27:16;102787.84;;;9.87;48.81
6778;BME280;3426;52.244;10.534;2023-02-04T09:29:42;102774.84;;;12.79;44.49
6778;BME280;3426;52.244;10.534;2023-02-04T09:32:09;102773.47;;;13.79;40.65
6778;BME280;3426;52.244;10.534;2023-02-04T09:34:35;102773.25;;;13.85;41.65
6778;BME280;3426;52.244;10.534;2023-02-04T09:37:02;102774.25;;;14.57;40.00
6778;BME280;3426;52.244;10.534;2023-02-04T09:39:28;102779.59;;;13.55;40.88
6778;BME280;3426;52.244;10.534;2023-02-04T09:41:55;102789.91;;;12.49;43.94
6778;BME280;3426;52.244;10.534;2023-02-04T09:44:23;102786.66;;;14.09;41.43
6778;BME280;3426;52.244;10.534;2023-02-04T09:46:53;102778.59;;;13.59;41.07
6778;BME280;3426;52.244;10.534;2023-02-04T09:49:21;102781.16;;;16.37;34.74
6778;BME280;3426;52.244;10.534;2023-02-04T09:51:48;102787.06;;;14.46;36.55
6778;BME280;3426;52.244;10.534;2023-02-04T09:54:18;102798.75;;;13.66;39.20
6778;BME280;3426;52.244;10.534;2023-02-04T09:56:45;102809.84;;;13.80;38.69
6778;BME280;3426;52.244;10.534;2023-02-04T09:59:20;102804.28;;;15.09;36.88
6778;BME280;3426;52.244;10.534;2023-02-04T10:01:52;102809.94;;;12.91;40.44
6778;BME280;3426;52.244;10.534;2023-02-04T10:04:21;102815.50;;;12.20;41.28
6778;BME280;3426;52.244;10.534;2023-02-04T10:06:47;102809.81;;;14.81;37.71
6778;BME280;3426;52.244;10.534;2023-02-04T10:09:14;102811.34;;;13.61;39.95
6778;BME280;3426;52.244;10.534;2023-02-04T10:11:43;102808.53;;;13.39;40.40
6778;BME280;3426;52.244;10.534;2023-02-04T10:14:14;102811.47;;;14.61;35.73
6778;BME280;3426;52.244;10.534;2023-02-04T10:16:42;102798.94;;;15.53;36.41
6778;BME280;3426;52.244;10.534;2023-02-04T10:19:13;102812.56;;;12.62;41.62
6778;BME280;3426;52.244;10.534;2023-02-04T10:21:43;102807.47;;;11.87;42.24
6778;BME280;3426;52.244;10.534;2023-02-04T10:24:20;102810.47;;;12.08;42.15
6778;BME280;3426;52.244;10.534;2023-02-04T10:26:47;102827.34;;;10.47;43.35
6778;BME280;3426;52.244;10.534;2023-02-04T10:29:22;102825.69;;;9.34;46.88
6778;BME280;3426;52.244;10.534;2023-02-04T10:31:52;102820.28;;;9.41;46.96
6778;BME280;3426;52.244;10.534;2023-02-04T10:34:22;102822.06;;;9.41;47.43
6778;BME280;3426;52.244;10.534;2023-02-04T10:36:54;102833.97;;;8.28;50.92
6778;BME280;3426;52.244;10.534;2023-02-04T10:39:27;102837.72;;;9.56;47.61
6778;BME280;3426;52.244;10.534;2023-02-04T10:41:58;102840.63;;;7.75;52.68
6778;BME280;3426;52.244;10.534;2023-02-04T10:44:33;102850.53;;;7.39;54.48
6778;BME280;3426;52.244;10.534;2023-02-04T10:47:03;102845.63;;;5.88;57.35
6778;BME280;3426;52.244;10.534;2023-02-04T10:49:31;102848.31;;;5.98;59.37
6778;BME280;3426;52.244;10.534;2023-02-04T10:51:58;102856.16;;;6.43;57.23
6778;BME280;3426;52.244;10.534;2023-02-04T10:54:34;102858.78;;;6.38;58.03
6778;BME280;3426;52.244;10.534;2023-02-04T10:57:23;102858.78;;;6.50;56.72
6778;BME280;3426;52.244;10.534;2023-02-04T10:59:57;102862.31;;;6.22;58.96
6778;BME280;3426;52.244;10.534;2023-02-04T11:02:31;102856.97;;;6.71;57.00
6778;BME280;3426;52.244;10.534;2023-02-04T11:04:59;102862.25;;;6.63;57.46
6778;BME280;3426;52.244;10.534;2023-02-04T11:07:26;102867.50;;;5.54;60.06
6778;BME280;3426;52.244;10.534;2023-02-04T11:09:53;102860.50;;;6.51;57.89
6778;BME280;3426;52.244;10.534;2023-02-04T11:12:22;102861.41;;;5.78;58.36
6778;BME280;3426;52.244;10.534;2023-02-04T11:14:56;102864.09;;;6.09;58.11
6778;BME280;3426;52.244;10.534;2023-02-04T11:17:31;102864.88;;;6.66;55.63
6778;BME280;3426;52.244;10.534;2023-02-04T11:19:58;102855.28;;;5.87;57.26
6778;BME280;3426;52.244;10.534;2023-02-04T11:22:42;102861.31;;;6.84;56.73
6778;BME280;3426;52.244;10.534;2023-02-04T11:25:31;102870.88;;;7.09;54.64
6778;BME280;3426;52.244;10.534;2023-02-04T11:28:00;102858.13;;;7.82;52.97
6778;BME280;3426;52.244;10.534;2023-02-04T11:30:38;102869.28;;;8.19;51.82
6778;BME280;3426;52.244;10.534;2023-02-04T11:33:18;102871.13;;;8.05;52.57
6778;BME280;3426;52.244;10.534;2023-02-04T11:36:03;102868.56;;;7.97;51.62
6778;BME280;3426;52.244;10.534;2023-02-04T11:38:31;102863.41;;;7.82;52.37
6778;BME280;3426;52.244;10.534;2023-02-04T11:40:58;102887.69;;;6.69;55.07
6778;BME280;3426;52.244;10.534;2023-02-04T11:43:26;102878.66;;;7.38;53.38
6778;BME280;3426;52.244;10.534;2023-02-04T11:46:13;102871.03;;;6.57;55.44
6778;BME280;3426;52.244;10.534;2023-02-04T11:48:41;102885.78;;;7.09;54.79
6778;BME280;3426;52.244;10.534;2023-02-04T11:51:14;102887.69;;;6.72;56.28
6778;BME280;3426;52.244;10.534;2023-02-04T11:53:42;102885.97;;;8.19;52.41
6778;BME280;3426;52.244;10.534;2023-02-04T11:56:21;102891.75;;;7.52;53.49
6778;BME280;3426;52.244;10.534;2023-02-04T11:58:49;102897.31;;;6.85;54.97
6778;BME280;3426;52.244;10.534;2023-02-04T12:01:21;102885.56;;;7.53;53.90
6778;BME280;3426;52.244;10.534;2023-02-04T12:03:55;102893.69;;;7.16;53.75
6778;BME280;3426;52.244;10.534;2023-02-04T12:06:27;102889.16;;;7.49;53.75
6778;BME280;3426;52.244;10.534;2023-02-04T12:09:18;102882.09;;;8.60;50.94
6778;BME280;3426;52.244;10.534;2023-02-04T12:11:55;102874.41;;;8.37;51.93
6778;BME280;3426;52.244;10.534;2023-02-04T12:14:34;102883.59;;;8.86;50.10
6778;BME280;3426;52.244;10.534;2023-02-04T12:17:18;102875.88;;;8.66;51.14
6778;BME280;3426;52.244;10.534;2023-02-04T12:19:45;102883.13;;;8.47;52.01
6778;BME280;3426;52.244;10.534;2023-02-04T12:22:11;102876.59;;;8.82;50.35
6778;BME280;3426;52.244;10.534;2023-02-04T12:24:40;102884.66;;;8.69;50.93
6778;BME280;3426;52.244;10.534;2023-02-04T12:27:06;102879.19;;;8.86;50.37
6778;BME280;3426;52.244;10.534;2023-02-04T12:29:33;102889.38;;;8.37;51.19
6778;BME280;3426;52.244;10.534;2023-02-04T12:31:59;102888.22;;;8.65;50.70
6778;BME280;3426;52.244;10.534;2023-02-04T12:34:25;102892.31;;;8.94;50.30
6778;BME280;3426;52.244;10.534;2023-02-04T12:36:52;102895.34;;;7.36;52.88
6778;BME280;3426;52.244;10.534;2023-02-04T12:39:18;102908.56;;;7.28;53.07
6778;BME280;3426;52.244;10.534;2023-02-04T12:41:48;102905.00;;;7.40;52.66
6778;BME280;3426;52.244;10.534;2023-02-04T12:44:14;102902.81;;;8.06;52.24
6778;BME280;3426;52.244;10.534;2023-02-04T12:46:42;102896.88;;;8.80;50.23
6778;BME280;3426;52.244;10.534;2023-02-04T12:49:09;102902.16;;;8.80;49.56
6778;BME280;3426;52.244;10.534;2023-02-04T12:51:35;102902.84;;;8.97;50.13
6778;BME280;3426;52.244;10.534;2023-02-04T12:54:02;102900.13;;;9.05;48.83
6778;BME280;3426;52.244;10.534;2023-02-04T12:56:28;102903.25;;;8.60;51.57
6778;BME280;3426;52.244;10.534;2023-02-04T12:58:54;102903.72;;;8.96;50.60
6778;BME280;3426;52.244;10.534;2023-02-04T13:01:21;102898.28;;;9.10;49.71
6778;BME280;3426;52.244;10.534;2023-02-04T13:03:47;102902.16;;;8.80;50.63
6778;BME280;3426;52.244;10.534;2023-02-04T13:06:14;102898.50;;;8.93;49.92
6778;BME280;3426;52.244;10.534;2023-02-04T13:08:40;102911.09;;;8.68;50.17
6778;BME280;3426;52.244;10.534;2023-02-04T13:11:07;102893.16;;;8.97;49.31
6778;BME280;3426;52.244;10.534;2023-02-04T13:13:33;102893.34;;;8.79;48.86